Time;durP1;ratioP1;P1;durP2;ratioP2;P2;SDS_P1;SDS_P2;PMS_P1;PMS_P2;Temp;Humidity;BMP_temperature;BMP_pressure;BME280_temperature;BME280_humidity;BME280_pressure;Samples;Min_cycle;Max_cycle;Signal;HPM_P1;HPM_P2
2021/07/09 00:01:18;;;;;;;4.18;3.20;;;;;;;;;;5017550;28;20066;-68
2021/07/09 00:03:45;;;;;;;4.15;3.72;;;;;;;;;;5019143;28;20045;-67
2021/07/09 00:06:12;;;;;;;4.97;3.70;;;;;;;;;;5017431;28;20085;-68
2021/07/09 00:08:39;;;;;;;3.88;3.38;;;;;;;;;;5018913;28;20077;-68
2021/07/09 00:11:06;;;;;;;9.35;4.22;;;;;;;;;;5018974;28;20073;-68
2021/07/09 00:13:32;;;;;;;6.90;3.53;;;;;;;;;;5020329;28;20136;-68
2021/07/09 00:15:59;;;;;;;5.78;4.00;;;;;;;;;;5017595;28;20049;-68
2021/07/09 00:18:26;;;;;;;5.70;3.75;;;;;;;;;;5018264;28;20087;-68
2021/07/09 00:20:52;;;;;;;6.95;4.05;;;;;;;;;;5016913;28;20100;-68
2021/07/09 00:23:19;;;;;;;6.90;4.00;;;;;;;;;;5018374;28;20054;-68
2021/07/09 00:25:46;;;;;;;5.70;4.15;;;;;;;;;;5018325;28;20501;-68
2021/07/09 00:28:12;;;;;;;6.47;4.40;;;;;;;;;;5018001;28;20069;-68
2021/07/09 00:30:39;;;;;;;7.78;4.53;;;;;;;;;;5018591;28;20121;-68
2021/07/09 00:33:05;;;;;;;6.20;4.50;;;;;;;;;;5016954;28;20580;-68
2021/07/09 00:35:32;;;;;;;10.88;6.13;;;;;;;;;;5016125;28;20100;-68
2021/07/09 00:37:58;;;;;;;8.52;4.80;;;;;;;;;;5016709;28;20053;-68
2021/07/09 00:40:25;;;;;;;6.60;4.78;;;;;;;;;;5016720;28;20084;-67
2021/07/09 00:42:52;;;;;;;6.30;4.53;;;;;;;;;;5017016;28;20050;-68
2021/07/09 00:45:19;;;;;;;5.20;4.68;;;;;;;;;;5021407;28;20053;-68
2021/07/09 00:47:46;;;;;;;6.90;4.95;;;;;;;;;;5020694;28;20092;-68
2021/07/09 00:50:13;;;;;;;7.18;5.10;;;;;;;;;;5022436;28;20045;-68
2021/07/09 00:52:40;;;;;;;5.88;4.95;;;;;;;;;;5020675;28;20053;-68
2021/07/09 00:55:07;;;;;;;11.30;4.70;;;;;;;;;;5023737;28;20079;-68
2021/07/09 00:57:35;;;;;;;8.95;4.82;;;;;;;;;;5023219;28;20077;-67
2021/07/09 01:00:04;;;;;;;6.40;4.85;;;;;;;;;;5004138;28;20076;-68
2021/07/09 01:02:31;;;;;;;6.82;4.55;;;;;;;;;;5021631;28;20116;-68
2021/07/09 01:04:58;;;;;;;5.70;4.80;;;;;;;;;;5019372;28;20509;-68
2021/07/09 01:07:26;;;;;;;7.65;5.07;;;;;;;;;;5022044;28;20480;-67
2021/07/09 01:09:52;;;;;;;6.20;5.10;;;;;;;;;;5023528;28;20528;-67
2021/07/09 01:12:19;;;;;;;6.07;4.90;;;;;;;;;;5022298;28;20469;-68
2021/07/09 01:14:46;;;;;;;10.68;5.53;;;;;;;;;;5018944;28;20112;-67
2021/07/09 01:17:13;;;;;;;6.57;4.82;;;;;;;;;;5021826;28;20084;-68
2021/07/09 01:19:40;;;;;;;5.50;4.38;;;;;;;;;;5020225;28;20056;-68
2021/07/09 01:22:07;;;;;;;7.68;5.45;;;;;;;;;;5022712;28;20069;-68
2021/07/09 01:24:38;;;;;;;7.95;5.57;;;;;;;;;;5019771;28;20494;-68
2021/07/09 01:27:05;;;;;;;5.43;4.50;;;;;;;;;;5023192;28;20133;-68
2021/07/09 01:29:32;;;;;;;8.25;5.28;;;;;;;;;;5020243;28;20129;-68
2021/07/09 01:31:59;;;;;;;6.40;5.30;;;;;;;;;;5020544;28;20081;-68
2021/07/09 01:34:26;;;;;;;7.53;5.25;;;;;;;;;;5021045;28;20045;-68
2021/07/09 01:36:52;;;;;;;7.50;5.18;;;;;;;;;;5020178;28;20148;-68
2021/07/09 01:39:19;;;;;;;7.78;5.70;;;;;;;;;;5021444;28;20120;-68
2021/07/09 01:41:46;;;;;;;11.23;6.38;;;;;;;;;;5019340;28;20049;-68
2021/07/09 01:44:12;;;;;;;10.82;5.43;;;;;;;;;;5025154;28;20069;-68
2021/07/09 01:46:39;;;;;;;8.75;5.43;;;;;;;;;;5018118;28;20082;-68
2021/07/09 01:49:06;;;;;;;13.68;5.90;;;;;;;;;;5024398;28;20100;-67
2021/07/09 01:51:32;;;;;;;9.23;5.38;;;;;;;;;;5019358;28;20084;-67
2021/07/09 01:53:59;;;;;;;9.27;5.93;;;;;;;;;;5023680;28;20072;-67
2021/07/09 01:56:25;;;;;;;10.07;6.35;;;;;;;;;;5019322;28;20050;-67
2021/07/09 01:58:53;;;;;;;12.95;6.43;;;;;;;;;;5021019;28;20080;-67
2021/07/09 02:01:20;;;;;;;8.05;7.03;;;;;;;;;;5019237;28;20077;-67
2021/07/09 02:03:46;;;;;;;10.63;7.63;;;;;;;;;;5021749;28;20049;-67
2021/07/09 02:06:13;;;;;;;8.88;6.35;;;;;;;;;;5022185;28;20393;-67
2021/07/09 02:08:39;;;;;;;12.43;7.25;;;;;;;;;;5023290;28;20077;-67
2021/07/09 02:11:06;;;;;;;11.18;7.00;;;;;;;;;;5019511;28;20209;-67
2021/07/09 02:13:32;;;;;;;33.60;8.00;;;;;;;;;;5019768;28;20091;-67
2021/07/09 02:15:59;;;;;;;17.33;7.90;;;;;;;;;;5020081;28;20420;-67
2021/07/09 02:18:26;;;;;;;9.02;7.80;;;;;;;;;;5019521;28;20144;-67
2021/07/09 02:20:52;;;;;;;9.90;6.93;;;;;;;;;;5020189;28;20137;-67
2021/07/09 02:23:19;;;;;;;9.35;7.07;;;;;;;;;;5019215;28;20042;-67
2021/07/09 02:25:46;;;;;;;10.93;6.80;;;;;;;;;;5020886;28;20080;-67
2021/07/09 02:28:12;;;;;;;12.50;7.00;;;;;;;;;;5018752;28;20380;-67
2021/07/09 02:30:39;;;;;;;7.15;5.70;;;;;;;;;;5021148;28;20085;-67
2021/07/09 02:33:06;;;;;;;10.00;5.88;;;;;;;;;;5018428;28;20133;-67
2021/07/09 02:35:35;;;;;;;9.77;5.90;;;;;;;;;;5020602;28;20770;-67
2021/07/09 02:38:02;;;;;;;9.85;7.15;;;;;;;;;;5018927;28;20085;-67
2021/07/09 02:40:29;;;;;;;8.18;6.47;;;;;;;;;;5020170;28;20088;-67
2021/07/09 02:42:58;;;;;;;11.60;6.65;;;;;;;;;;5018361;28;20527;-67
2021/07/09 02:45:26;;;;;;;13.88;6.53;;;;;;;;;;5021921;28;20084;-67
2021/07/09 02:48:12;;;;;;;10.57;6.78;;;;;;;;;;5021552;28;20041;-67
2021/07/09 02:50:38;;;;;;;6.50;5.35;;;;;;;;;;5018394;28;20088;-67
2021/07/09 02:53:05;;;;;;;10.60;5.70;;;;;;;;;;5021854;28;20080;-67
2021/07/09 02:55:31;;;;;;;11.35;6.43;;;;;;;;;;5018295;28;20104;-67
2021/07/09 02:57:58;;;;;;;10.95;6.10;;;;;;;;;;5019780;28;20204;-67
2021/07/09 03:00:24;;;;;;;11.43;5.75;;;;;;;;;;5018744;28;20140;-67
2021/07/09 03:02:51;;;;;;;13.30;6.78;;;;;;;;;;5019243;28;20137;-67
2021/07/09 03:05:17;;;;;;;12.60;7.00;;;;;;;;;;5018647;28;20085;-67
2021/07/09 03:07:44;;;;;;;9.77;6.30;;;;;;;;;;5018454;28;20136;-67
2021/07/09 03:10:12;;;;;;;9.27;6.40;;;;;;;;;;5019514;28;20083;-67
2021/07/09 03:12:39;;;;;;;9.07;7.00;;;;;;;;;;5018846;28;20523;-67
2021/07/09 03:15:07;;;;;;;11.48;7.75;;;;;;;;;;5020082;28;20069;-67
2021/07/09 03:17:34;;;;;;;11.25;6.97;;;;;;;;;;5016423;28;20176;-67
2021/07/09 03:20:01;;;;;;;13.45;6.80;;;;;;;;;;5020175;28;20511;-68
2021/07/09 03:22:27;;;;;;;11.40;6.85;;;;;;;;;;5021273;28;20073;-68
2021/07/09 03:24:54;;;;;;;9.45;7.00;;;;;;;;;;5022052;28;20073;-67
2021/07/09 03:27:20;;;;;;;11.13;7.32;;;;;;;;;;5017564;28;20077;-67
2021/07/09 03:29:47;;;;;;;13.23;7.53;;;;;;;;;;5019482;28;20481;-67
2021/07/09 03:32:13;;;;;;;8.40;6.45;;;;;;;;;;5017740;28;20103;-67
2021/07/09 03:34:40;;;;;;;9.07;6.65;;;;;;;;;;5019357;28;20053;-67
2021/07/09 03:37:06;;;;;;;9.75;7.65;;;;;;;;;;5018021;28;20057;-67
2021/07/09 03:39:33;;;;;;;13.10;8.30;;;;;;;;;;5022865;28;20476;-67
2021/07/09 03:41:59;;;;;;;12.65;8.18;;;;;;;;;;5017625;28;20527;-67
2021/07/09 03:44:26;;;;;;;11.07;7.55;;;;;;;;;;5019055;28;20460;-67
2021/07/09 03:46:52;;;;;;;12.63;7.28;;;;;;;;;;5018482;28;20080;-67
2021/07/09 03:49:19;;;;;;;14.18;7.50;;;;;;;;;;5020655;28;20520;-67
2021/07/09 03:51:47;;;;;;;7.03;5.95;;;;;;;;;;5018830;28;20499;-67
2021/07/09 03:54:14;;;;;;;13.48;7.40;;;;;;;;;;5017635;28;20046;-67
2021/07/09 03:56:41;;;;;;;10.85;8.25;;;;;;;;;;5019222;28;20124;-67
2021/07/09 03:59:07;;;;;;;13.02;7.85;;;;;;;;;;5017051;28;20077;-68
2021/07/09 04:01:34;;;;;;;14.65;7.15;;;;;;;;;;5019352;28;20077;-67
2021/07/09 04:04:00;;;;;;;10.00;8.07;;;;;;;;;;5015912;28;20056;-67
2021/07/09 04:06:27;;;;;;;8.68;7.38;;;;;;;;;;5019077;28;20073;-67
2021/07/09 04:08:54;;;;;;;9.65;7.20;;;;;;;;;;5017303;28;20080;-67
2021/07/09 04:11:20;;;;;;;17.88;8.60;;;;;;;;;;5018608;28;20123;-67
2021/07/09 04:13:47;;;;;;;11.32;8.25;;;;;;;;;;5017325;28;20523;-67
2021/07/09 04:16:13;;;;;;;10.75;7.90;;;;;;;;;;5019080;28;20046;-67
2021/07/09 04:18:40;;;;;;;10.27;7.85;;;;;;;;;;5018007;28;20054;-67
2021/07/09 04:21:07;;;;;;;12.68;7.78;;;;;;;;;;5020738;28;20204;-67
2021/07/09 04:23:33;;;;;;;9.98;8.15;;;;;;;;;;5021638;28;20081;-67
2021/07/09 04:26:00;;;;;;;13.02;8.07;;;;;;;;;;5022014;28;20065;-68
2021/07/09 04:28:26;;;;;;;10.70;7.80;;;;;;;;;;5021832;28;20080;-67
2021/07/09 04:30:54;;;;;;;18.33;7.80;;;;;;;;;;5021936;28;20576;-67
2021/07/09 04:33:22;;;;;;;10.32;7.68;;;;;;;;;;5022122;28;20504;-67
2021/07/09 04:35:50;;;;;;;10.90;7.53;;;;;;;;;;5023430;28;20128;-67
2021/07/09 04:38:17;;;;;;;9.85;7.53;;;;;;;;;;5020169;28;20132;-67
2021/07/09 04:40:44;;;;;;;13.55;7.60;;;;;;;;;;5020328;28;20280;-67
2021/07/09 04:43:10;;;;;;;12.95;8.38;;;;;;;;;;5020276;28;20070;-67
2021/07/09 04:45:37;;;;;;;11.98;8.25;;;;;;;;;;5020816;28;20179;-67
2021/07/09 04:48:04;;;;;;;12.85;8.50;;;;;;;;;;5089693;22;20063;-67
2021/07/09 04:50:32;;;;;;;10.32;7.00;;;;;;;;;;5032922;28;20538;-68
2021/07/09 04:52:58;;;;;;;12.95;8.45;;;;;;;;;;5034058;28;20092;-67
2021/07/09 04:55:25;;;;;;;12.40;8.45;;;;;;;;;;5033514;28;20092;-67
2021/07/09 04:57:51;;;;;;;10.68;6.85;;;;;;;;;;5032387;28;20085;-67
2021/07/09 05:00:18;;;;;;;9.57;6.97;;;;;;;;;;5020408;28;20520;-67
2021/07/09 05:02:44;;;;;;;15.10;8.13;;;;;;;;;;5021294;28;20129;-67
2021/07/09 05:05:13;;;;;;;9.98;7.25;;;;;;;;;;5020611;28;20516;-67
2021/07/09 05:07:44;;;;;;;9.65;6.90;;;;;;;;;;5020132;28;20061;-67
2021/07/09 05:10:11;;;;;;;10.43;7.32;;;;;;;;;;5021982;28;20511;-67
2021/07/09 05:12:37;;;;;;;8.93;7.18;;;;;;;;;;5019647;28;20530;-67
2021/07/09 05:15:05;;;;;;;9.07;7.35;;;;;;;;;;5022675;28;20085;-67
2021/07/09 05:17:31;;;;;;;10.57;6.88;;;;;;;;;;5019680;28;20468;-67
2021/07/09 05:19:58;;;;;;;9.20;7.60;;;;;;;;;;5021910;28;20045;-67
2021/07/09 05:22:24;;;;;;;11.93;7.95;;;;;;;;;;5022443;28;20077;-67
2021/07/09 05:24:55;;;;;;;10.70;7.07;;;;;;;;;;5021578;28;20084;-67
2021/07/09 05:27:23;;;;;;;13.40;7.50;;;;;;;;;;5019948;28;20085;-67
2021/07/09 05:29:49;;;;;;;10.23;6.75;;;;;;;;;;5021045;28;20096;-67
2021/07/09 05:32:19;;;;;;;10.50;7.97;;;;;;;;;;5019443;28;20125;-67
2021/07/09 05:34:46;;;;;;;11.40;8.23;;;;;;;;;;5003428;28;20086;-67
2021/07/09 05:37:12;;;;;;;9.00;6.68;;;;;;;;;;5021335;28;20041;-67
2021/07/09 05:39:48;;;;;;;7.25;6.47;;;;;;;;;;5070679;22;20073;-67
2021/07/09 05:42:15;;;;;;;8.13;6.55;;;;;;;;;;5012334;28;20460;-67
2021/07/09 05:44:43;;;;;;;9.27;6.78;;;;;;;;;;5013066;28;20077;-67
2021/07/09 05:47:11;;;;;;;10.88;7.35;;;;;;;;;;5011694;28;20072;-67
2021/07/09 05:49:38;;;;;;;8.70;7.10;;;;;;;;;;5008212;28;20077;-67
2021/07/09 05:52:05;;;;;;;7.55;6.25;;;;;;;;;;5011267;28;20128;-67
2021/07/09 05:54:31;;;;;;;10.00;8.05;;;;;;;;;;5010428;28;20088;-67
2021/07/09 05:56:58;;;;;;;9.13;7.32;;;;;;;;;;5011383;28;20088;-66
2021/07/09 05:59:24;;;;;;;10.45;8.10;;;;;;;;;;5009255;28;20093;-67
2021/07/09 06:01:52;;;;;;;8.15;7.13;;;;;;;;;;5010334;28;20440;-67
2021/07/09 06:04:18;;;;;;;10.75;7.18;;;;;;;;;;5010437;28;20089;-67
2021/07/09 06:06:46;;;;;;;10.65;8.02;;;;;;;;;;5010981;28;20473;-67
2021/07/09 06:09:13;;;;;;;11.05;7.40;;;;;;;;;;5010693;28;20073;-67
2021/07/09 06:11:39;;;;;;;9.70;7.95;;;;;;;;;;5006902;28;20077;-67
2021/07/09 06:14:06;;;;;;;11.23;8.25;;;;;;;;;;5010216;28;20083;-67
2021/07/09 06:16:33;;;;;;;13.98;8.10;;;;;;;;;;5010286;28;20140;-67
2021/07/09 06:18:59;;;;;;;12.30;7.97;;;;;;;;;;5009630;28;20050;-67
2021/07/09 06:21:26;;;;;;;11.73;7.72;;;;;;;;;;5009579;28;20165;-67
2021/07/09 06:23:53;;;;;;;9.30;7.97;;;;;;;;;;5009820;28;20496;-67
2021/07/09 06:26:20;;;;;;;11.52;7.65;;;;;;;;;;5009679;28;20088;-67
2021/07/09 06:28:47;;;;;;;13.77;9.00;;;;;;;;;;5008263;28;20484;-67
2021/07/09 06:31:14;;;;;;;13.18;9.02;;;;;;;;;;5010117;28;20050;-67
2021/07/09 06:33:41;;;;;;;12.15;8.07;;;;;;;;;;5010458;28;20578;-67
2021/07/09 06:36:07;;;;;;;10.85;8.75;;;;;;;;;;5005062;28;20054;-67
2021/07/09 06:38:34;;;;;;;10.40;8.20;;;;;;;;;;5009719;28;20763;-67
2021/07/09 06:41:00;;;;;;;10.32;8.00;;;;;;;;;;5009242;28;20585;-67
2021/07/09 06:43:27;;;;;;;17.15;8.93;;;;;;;;;;5008992;28;20056;-66
2021/07/09 06:45:53;;;;;;;14.45;9.50;;;;;;;;;;5009784;28;20128;-67
2021/07/09 06:48:20;;;;;;;13.02;8.55;;;;;;;;;;5009792;28;20520;-67
2021/07/09 06:50:47;;;;;;;9.73;8.23;;;;;;;;;;5009835;28;20159;-67
2021/07/09 06:53:14;;;;;;;9.40;8.15;;;;;;;;;;5009103;28;20490;-67
2021/07/09 06:55:41;;;;;;;13.23;9.60;;;;;;;;;;5009044;28;20058;-67
2021/07/09 06:58:07;;;;;;;13.30;9.02;;;;;;;;;;5008539;28;20089;-66
2021/07/09 07:00:35;;;;;;;10.57;8.80;;;;;;;;;;5008284;28;20085;-69
2021/07/09 07:03:08;;;;;;;11.35;8.73;;;;;;;;;;5051177;28;20425;-75
2021/07/09 07:05:35;;;;;;;11.30;8.55;;;;;;;;;;5042883;28;20103;-72
2021/07/09 07:08:23;;;;;;;13.25;8.93;;;;;;;;;;5039728;28;20535;-73
2021/07/09 07:10:51;;;;;;;9.68;8.32;;;;;;;;;;5012651;28;20145;-69
2021/07/09 07:13:19;;;;;;;11.52;8.90;;;;;;;;;;5017859;28;20506;-68
2021/07/09 07:15:46;;;;;;;12.15;9.77;;;;;;;;;;5033825;28;20504;-68
2021/07/09 07:18:12;;;;;;;11.07;8.38;;;;;;;;;;5018676;28;20057;-68
2021/07/09 07:20:41;;;;;;;11.02;8.20;;;;;;;;;;5016437;28;20975;-68
2021/07/09 07:23:09;;;;;;;10.13;7.43;;;;;;;;;;5014568;28;20093;-68
2021/07/09 07:25:36;;;;;;;10.57;7.88;;;;;;;;;;5014417;28;20085;-68
2021/07/09 07:28:03;;;;;;;10.10;8.98;;;;;;;;;;5017947;28;20082;-68
2021/07/09 07:30:30;;;;;;;9.23;7.07;;;;;;;;;;5020601;28;20104;-67
2021/07/09 07:32:56;;;;;;;9.55;7.43;;;;;;;;;;5017664;28;20077;-67
2021/07/09 07:35:23;;;;;;;10.70;8.40;;;;;;;;;;5018033;28;20042;-66
2021/07/09 07:37:50;;;;;;;10.18;7.63;;;;;;;;;;5013967;28;20124;-68
2021/07/09 07:40:17;;;;;;;10.75;7.55;;;;;;;;;;5019779;28;20084;-67
2021/07/09 07:42:43;;;;;;;8.27;6.97;;;;;;;;;;5013957;28;20128;-67
2021/07/09 07:45:11;;;;;;;8.07;7.28;;;;;;;;;;5015463;28;20082;-68
2021/07/09 07:47:38;;;;;;;9.75;7.07;;;;;;;;;;5012369;28;20094;-69
2021/07/09 07:50:06;;;;;;;9.98;6.43;;;;;;;;;;5017227;28;20053;-67
2021/07/09 07:52:32;;;;;;;9.73;7.30;;;;;;;;;;5015589;28;20505;-67
2021/07/09 07:54:59;;;;;;;7.95;6.22;;;;;;;;;;5015081;28;20057;-68
2021/07/09 07:57:26;;;;;;;8.18;7.38;;;;;;;;;;5015460;28;20504;-68
2021/07/09 07:59:53;;;;;;;9.50;8.15;;;;;;;;;;5015185;28;20103;-67
2021/07/09 08:02:19;;;;;;;9.60;7.07;;;;;;;;;;5017635;28;20048;-68
2021/07/09 08:04:47;;;;;;;9.77;6.60;;;;;;;;;;5017103;28;20077;-68
2021/07/09 08:07:14;;;;;;;12.23;7.60;;;;;;;;;;5017949;28;20116;-68
2021/07/09 08:09:42;;;;;;;8.68;6.85;;;;;;;;;;5013025;28;20074;-66
2021/07/09 08:12:08;;;;;;;6.53;5.93;;;;;;;;;;5012879;28;20073;-68
2021/07/09 08:14:36;;;;;;;8.85;7.95;;;;;;;;;;5000061;28;20134;-67
2021/07/09 08:17:03;;;;;;;10.30;7.43;;;;;;;;;;5004317;28;20056;-68
2021/07/09 08:19:30;;;;;;;9.02;7.63;;;;;;;;;;5001777;28;20061;-68
2021/07/09 08:21:57;;;;;;;9.65;7.97;;;;;;;;;;5005477;28;20076;-69
2021/07/09 08:24:24;;;;;;;9.35;8.10;;;;;;;;;;5000909;28;20648;-66
2021/07/09 08:26:51;;;;;;;11.05;7.90;;;;;;;;;;5005887;28;20053;-67
2021/07/09 08:29:22;;;;;;;10.00;7.82;;;;;;;;;;5002715;28;20050;-67
2021/07/09 08:31:51;;;;;;;9.38;8.20;;;;;;;;;;5004641;28;20046;-69
2021/07/09 08:34:18;;;;;;;11.70;7.15;;;;;;;;;;5002463;28;20046;-67
2021/07/09 08:36:44;;;;;;;9.98;7.43;;;;;;;;;;5000091;28;20134;-67
2021/07/09 08:39:15;;;;;;;9.07;7.00;;;;;;;;;;5003229;28;20131;-67
2021/07/09 08:41:44;;;;;;;9.73;6.80;;;;;;;;;;5004360;28;20080;-67
2021/07/09 08:44:12;;;;;;;9.65;7.07;;;;;;;;;;5001089;28;20105;-66
2021/07/09 08:46:39;;;;;;;7.75;6.55;;;;;;;;;;5000569;28;20085;-71
2021/07/09 08:49:08;;;;;;;7.55;6.75;;;;;;;;;;5001393;28;20077;-71
2021/07/09 08:51:35;;;;;;;12.02;6.70;;;;;;;;;;5001073;28;20416;-67
2021/07/09 08:54:02;;;;;;;9.52;6.82;;;;;;;;;;4982916;28;20074;-66
2021/07/09 08:56:28;;;;;;;7.65;6.20;;;;;;;;;;5001636;28;20089;-66
2021/07/09 08:58:55;;;;;;;9.95;6.22;;;;;;;;;;5002349;28;20129;-66
2021/07/09 09:01:21;;;;;;;10.57;6.90;;;;;;;;;;4998654;28;20050;-66
2021/07/09 09:03:48;;;;;;;7.88;6.00;;;;;;;;;;4999439;28;20066;-66
2021/07/09 09:06:15;;;;;;;7.55;6.00;;;;;;;;;;4984289;28;20509;-66
2021/07/09 09:08:42;;;;;;;6.72;5.50;;;;;;;;;;4999620;28;20469;-67
2021/07/09 09:11:09;;;;;;;5.38;4.82;;;;;;;;;;5003733;28;20053;-68
2021/07/09 09:13:37;;;;;;;6.20;5.55;;;;;;;;;;4999895;28;20050;-69
2021/07/09 09:16:14;;;;;;;7.00;5.30;;;;;;;;;;5007359;28;20050;-72
2021/07/09 09:18:47;;;;;;;6.63;5.85;;;;;;;;;;5015708;28;20049;-69
2021/07/09 09:21:21;;;;;;;8.77;6.27;;;;;;;;;;4999115;28;20477;-69
2021/07/09 09:23:48;;;;;;;7.85;6.10;;;;;;;;;;5001560;28;20296;-69
2021/07/09 09:26:14;;;;;;;9.00;6.18;;;;;;;;;;4998772;28;20050;-69
2021/07/09 09:28:41;;;;;;;6.28;5.35;;;;;;;;;;5002233;28;20074;-70
2021/07/09 09:31:07;;;;;;;6.05;5.53;;;;;;;;;;4999750;28;20109;-71
2021/07/09 09:33:36;;;;;;;8.00;5.32;;;;;;;;;;4983314;28;20641;-70
2021/07/09 09:36:07;;;;;;;7.53;5.30;;;;;;;;;;5000441;28;20065;-70
2021/07/09 09:38:34;;;;;;;5.43;4.90;;;;;;;;;;4998554;28;20639;-69
2021/07/09 09:41:02;;;;;;;7.13;5.93;;;;;;;;;;4998468;28;20078;-69
2021/07/09 09:43:33;;;;;;;7.03;5.72;;;;;;;;;;4998725;28;20133;-69
2021/07/09 09:46:03;;;;;;;6.60;5.20;;;;;;;;;;5000448;28;20065;-70
2021/07/09 09:48:44;;;;;;;7.28;5.97;;;;;;;;;;5000534;28;20056;-71
2021/07/09 09:51:33;;;;;;;7.57;5.38;;;;;;;;;;4995286;28;21294;-71
2021/07/09 09:54:05;;;;;;;5.25;4.75;;;;;;;;;;5003469;28;20452;-69
2021/07/09 09:56:43;;;;;;;6.35;5.18;;;;;;;;;;5002235;28;20515;-70
2021/07/09 09:59:22;;;;;;;4.88;4.38;;;;;;;;;;5003404;28;20104;-72
2021/07/09 10:02:03;;;;;;;6.47;4.00;;;;;;;;;;4998984;28;20046;-69
2021/07/09 10:04:31;;;;;;;4.05;3.67;;;;;;;;;;5004923;28;20525;-68
2021/07/09 10:06:59;;;;;;;5.22;3.45;;;;;;;;;;5000154;28;20152;-72
2021/07/09 10:09:28;;;;;;;4.15;3.75;;;;;;;;;;5001290;28;20050;-72
2021/07/09 10:11:55;;;;;;;5.97;3.60;;;;;;;;;;5000014;28;20479;-71
2021/07/09 10:14:28;;;;;;;4.20;3.67;;;;;;;;;;4996215;28;20082;-73
2021/07/09 10:17:04;;;;;;;8.60;4.38;;;;;;;;;;5016637;28;20497;-73
2021/07/09 10:19:38;;;;;;;5.07;4.10;;;;;;;;;;4998029;28;20436;-74
2021/07/09 10:22:25;;;;;;;6.22;3.80;;;;;;;;;;4997894;28;20072;-74
2021/07/09 10:24:54;;;;;;;5.90;3.75;;;;;;;;;;4999841;28;20056;-74
2021/07/09 10:27:22;;;;;;;5.40;3.70;;;;;;;;;;5004629;28;20053;-73
2021/07/09 10:29:50;;;;;;;3.85;3.00;;;;;;;;;;4981750;28;20042;-71
2021/07/09 10:32:31;;;;;;;3.80;3.50;;;;;;;;;;4998362;28;20039;-69
2021/07/09 10:34:58;;;;;;;6.70;3.78;;;;;;;;;;5002090;28;20411;-70
2021/07/09 10:37:29;;;;;;;6.45;3.35;;;;;;;;;;4998271;28;20052;-69
2021/07/09 10:40:19;;;;;;;6.28;3.85;;;;;;;;;;4996884;28;20046;-72
2021/07/09 10:42:49;;;;;;;3.58;3.28;;;;;;;;;;4997288;28;20468;-67
2021/07/09 10:45:26;;;;;;;3.92;2.75;;;;;;;;;;4981955;28;20077;-70
2021/07/09 10:48:02;;;;;;;5.72;3.38;;;;;;;;;;4997946;28;20080;-69
2021/07/09 10:50:50;;;;;;;5.75;3.00;;;;;;;;;;4999699;28;20050;-68
2021/07/09 10:53:23;;;;;;;3.30;2.95;;;;;;;;;;4997443;28;20058;-71
2021/07/09 10:55:55;;;;;;;3.60;2.90;;;;;;;;;;4996958;28;20125;-69
2021/07/09 10:58:23;;;;;;;;;;;;;;;;;;4995004;28;20158;-70
2021/07/09 11:00:50;;;;;;;4.30;3.05;;;;;;;;;;4998097;28;19972;-69
2021/07/09 11:03:39;;;;;;;6.63;2.90;;;;;;;;;;4995201;28;20157;-70
2021/07/09 11:06:14;;;;;;;3.75;3.15;;;;;;;;;;4999352;28;20520;-70
2021/07/09 11:08:51;;;;;;;4.57;2.92;;;;;;;;;;4994559;28;20089;-69
2021/07/09 11:11:36;;;;;;;3.72;2.88;;;;;;;;;;4994071;28;20058;-70
2021/07/09 11:14:14;;;;;;;3.13;2.78;;;;;;;;;;4997895;28;20050;-71
2021/07/09 11:16:58;;;;;;;4.15;2.80;;;;;;;;;;5000808;28;20046;-70
2021/07/09 11:19:32;;;;;;;5.72;4.03;;;;;;;;;;4996490;28;20108;-70
2021/07/09 11:22:08;;;;;;;5.68;4.10;;;;;;;;;;4999299;28;20053;-70
2021/07/09 11:24:42;;;;;;;5.70;4.40;;;;;;;;;;4999198;28;20104;-71
2021/07/09 11:27:13;;;;;;;6.05;4.68;;;;;;;;;;5002543;28;20100;-70
2021/07/09 11:29:46;;;;;;;4.43;4.03;;;;;;;;;;5001040;28;20105;-74
2021/07/09 11:32:19;;;;;;;7.13;3.78;;;;;;;;;;5000311;28;20114;-68
2021/07/09 11:34:50;;;;;;;5.82;3.70;;;;;;;;;;4999993;28;20046;-68
2021/07/09 11:37:24;;;;;;;4.70;4.10;;;;;;;;;;4999822;28;20077;-70
2021/07/09 11:39:57;;;;;;;6.00;4.05;;;;;;;;;;5003584;28;20046;-70
2021/07/09 11:42:27;;;;;;;5.85;4.80;;;;;;;;;;4979609;28;20410;-69
2021/07/09 11:44:56;;;;;;;5.20;4.40;;;;;;;;;;5002384;28;20050;-69
2021/07/09 11:47:30;;;;;;;5.78;4.80;;;;;;;;;;4999604;28;20520;-69
2021/07/09 11:50:02;;;;;;;5.55;5.05;;;;;;;;;;5003913;28;20517;-69
2021/07/09 11:52:34;;;;;;;4.63;4.22;;;;;;;;;;5003541;28;20078;-69
2021/07/09 11:55:08;;;;;;;5.95;5.13;;;;;;;;;;5000480;28;20058;-70
2021/07/09 11:57:37;;;;;;;7.55;5.30;;;;;;;;;;5002523;28;20085;-71
2021/07/09 12:00:12;;;;;;;8.13;5.45;;;;;;;;;;5001132;28;20072;-70
2021/07/09 12:02:39;;;;;;;6.00;5.47;;;;;;;;;;5002680;28;20082;-68
2021/07/09 12:05:13;;;;;;;7.10;4.65;;;;;;;;;;5002396;28;20058;-70
2021/07/09 12:07:41;;;;;;;7.45;5.82;;;;;;;;;;5015355;28;20054;-69
2021/07/09 12:10:18;;;;;;;8.60;6.13;;;;;;;;;;5005852;28;20050;-69
2021/07/09 12:12:51;;;;;;;9.35;6.05;;;;;;;;;;5001645;28;20074;-69
2021/07/09 12:15:25;;;;;;;7.65;6.35;;;;;;;;;;4985564;28;20096;-70
2021/07/09 12:17:54;;;;;;;8.68;6.68;;;;;;;;;;4997185;28;20149;-69
2021/07/09 12:20:31;;;;;;;8.38;6.63;;;;;;;;;;5001730;28;20413;-69
2021/07/09 12:23:02;;;;;;;8.65;5.63;;;;;;;;;;5001769;28;20057;-70
2021/07/09 12:25:30;;;;;;;7.63;5.97;;;;;;;;;;5005868;28;20089;-70
2021/07/09 12:28:01;;;;;;;6.32;5.03;;;;;;;;;;5000319;28;20537;-70
2021/07/09 12:30:34;;;;;;;6.07;4.55;;;;;;;;;;5006188;28;20085;-70
2021/07/09 12:33:02;;;;;;;7.63;5.82;;;;;;;;;;5003403;28;20078;-69
2021/07/09 12:35:48;;;;;;;6.38;5.60;;;;;;;;;;5000574;28;20051;-69
2021/07/09 12:38:19;;;;;;;6.88;6.15;;;;;;;;;;5002308;28;20077;-70
2021/07/09 12:40:50;;;;;;;8.48;6.38;;;;;;;;;;5004246;28;20100;-70
2021/07/09 12:43:45;;;;;;;7.72;6.15;;;;;;;;;;5002527;28;20058;-70
2021/07/09 12:46:23;;;;;;;9.35;6.63;;;;;;;;;;4999635;28;20058;-69
2021/07/09 12:49:05;;;;;;;6.78;6.18;;;;;;;;;;5003422;28;20068;-71
2021/07/09 12:51:36;;;;;;;7.22;6.53;;;;;;;;;;5001908;28;20513;-70
2021/07/09 12:54:05;;;;;;;10.30;7.32;;;;;;;;;;4999948;28;20081;-70
2021/07/09 12:56:39;;;;;;;8.70;6.05;;;;;;;;;;5006155;28;20096;-70
2021/07/09 12:59:10;;;;;;;7.18;5.40;;;;;;;;;;5002071;28;20472;-70
2021/07/09 13:01:41;;;;;;;7.43;5.30;;;;;;;;;;5006052;28;20084;-70
2021/07/09 13:04:24;;;;;;;6.13;4.68;;;;;;;;;;5002401;28;20520;-70
2021/07/09 13:07:13;;;;;;;5.72;5.22;;;;;;;;;;4999685;28;20081;-70
2021/07/09 13:09:44;;;;;;;5.57;4.95;;;;;;;;;;4999991;28;20058;-69
2021/07/09 13:12:18;;;;;;;4.72;4.05;;;;;;;;;;4999944;28;20061;-70
2021/07/09 13:14:58;;;;;;;6.75;3.80;;;;;;;;;;5001844;28;20078;-70
2021/07/09 13:17:26;;;;;;;5.80;4.57;;;;;;;;;;5001351;28;20490;-70
2021/07/09 13:20:06;;;;;;;8.18;4.95;;;;;;;;;;5000281;28;20046;-70
2021/07/09 13:22:36;;;;;;;6.75;5.18;;;;;;;;;;5004014;28;20073;-70
2021/07/09 13:25:21;;;;;;;10.20;6.70;;;;;;;;;;5000869;28;20082;-70
2021/07/09 13:27:54;;;;;;;10.18;7.38;;;;;;;;;;5001101;28;20149;-70
2021/07/09 13:30:21;;;;;;;9.50;6.68;;;;;;;;;;4998787;28;20074;-70
2021/07/09 13:32:47;;;;;;;11.02;7.60;;;;;;;;;;5004426;28;20074;-70
2021/07/09 13:35:16;;;;;;;9.15;7.20;;;;;;;;;;5003330;28;20100;-71
2021/07/09 13:37:43;;;;;;;9.73;8.20;;;;;;;;;;4999927;28;20077;-76
2021/07/09 13:40:12;;;;;;;9.57;8.55;;;;;;;;;;4983622;28;20095;-68
2021/07/09 13:42:44;;;;;;;9.55;8.48;;;;;;;;;;5000414;28;20058;-69
2021/07/09 13:45:11;;;;;;;9.80;8.90;;;;;;;;;;4998683;28;20050;-72
2021/07/09 13:47:39;;;;;;;8.07;7.28;;;;;;;;;;5001952;28;20074;-71
2021/07/09 13:50:07;;;;;;;8.98;7.32;;;;;;;;;;5002228;28;20058;-70
2021/07/09 13:52:34;;;;;;;10.65;7.28;;;;;;;;;;5000404;28;20398;-74
2021/07/09 13:55:01;;;;;;;9.82;7.53;;;;;;;;;;4995382;28;20826;-73
2021/07/09 13:57:28;;;;;;;7.68;5.72;;;;;;;;;;4983502;28;20480;-73
2021/07/09 13:59:55;;;;;;;6.50;5.90;;;;;;;;;;4998332;28;20045;-70
2021/07/09 14:02:21;;;;;;;7.75;5.25;;;;;;;;;;5000064;28;20068;-72
2021/07/09 14:04:49;;;;;;;5.88;4.43;;;;;;;;;;4999529;28;20053;-74
2021/07/09 14:07:15;;;;;;;5.68;4.03;;;;;;;;;;4998281;28;20053;-74
2021/07/09 14:09:42;;;;;;;4.07;3.67;;;;;;;;;;4998436;28;20084;-72
2021/07/09 14:12:09;;;;;;;4.43;4.00;;;;;;;;;;4996787;28;20078;-71
2021/07/09 14:14:37;;;;;;;4.50;4.10;;;;;;;;;;4985759;28;20096;-73
2021/07/09 14:17:05;;;;;;;5.68;4.20;;;;;;;;;;4981868;28;20091;-73
2021/07/09 14:19:32;;;;;;;5.75;4.85;;;;;;;;;;4998891;28;20054;-72
2021/07/09 14:22:00;;;;;;;5.85;5.30;;;;;;;;;;4998532;28;20117;-73
2021/07/09 14:24:26;;;;;;;6.40;5.05;;;;;;;;;;4998293;28;20050;-72
2021/07/09 14:26:53;;;;;;;6.05;5.45;;;;;;;;;;4997750;28;20081;-72
2021/07/09 14:29:20;;;;;;;5.72;4.07;;;;;;;;;;4998776;28;20054;-74
2021/07/09 14:31:46;;;;;;;4.70;4.25;;;;;;;;;;5000327;28;20101;-74
2021/07/09 14:34:14;;;;;;;3.90;3.50;;;;;;;;;;5001693;28;20080;-74
2021/07/09 14:36:41;;;;;;;4.15;3.00;;;;;;;;;;5001344;28;20081;-74
2021/07/09 14:39:08;;;;;;;2.67;2.47;;;;;;;;;;5000812;28;20050;-77
2021/07/09 14:41:35;;;;;;;2.35;2.15;;;;;;;;;;4998790;28;20401;-73
2021/07/09 14:44:02;;;;;;;3.55;2.50;;;;;;;;;;4982711;28;20568;-71
2021/07/09 14:46:28;;;;;;;3.25;2.38;;;;;;;;;;5004317;28;20054;-74
2021/07/09 14:48:55;;;;;;;2.58;1.90;;;;;;;;;;5004567;28;20045;-74